Time;durP1;ratioP1;P1;durP2;ratioP2;P2;SDS_P1;SDS_P2;PMS_P1;PMS_P2;Temp;Humidity;BMP_temperature;BMP_pressure;BME280_temperature;BME280_humidity;BME280_pressure;Samples;Min_cycle;Max_cycle;Signal;HPM_P1;HPM_P2
2023/09/05 00:00:45;;;;;;;9.75;7.18;;;20.40;99.90;;;;;;5031275;28;20041;-41
2023/09/05 00:03:10;;;;;;;9.20;7.03;;;20.70;99.90;;;;;;5031583;28;20466;-39
2023/09/05 00:05:36;;;;;;;9.98;7.60;;;20.30;99.90;;;;;;5013304;28;20495;-39
2023/09/05 00:08:02;;;;;;;8.77;6.95;;;20.50;99.90;;;;;;5031514;28;20091;-37
2023/09/05 00:10:28;;;;;;;8.65;6.90;;;20.70;99.90;;;;;;5031797;28;20037;-39
2023/09/05 00:12:54;;;;;;;9.02;6.85;;;20.20;99.90;;;;;;5031130;28;20487;-40
2023/09/05 00:15:19;;;;;;;9.77;7.63;;;21.60;99.90;;;;;;5030081;28;20038;-41
2023/09/05 00:17:45;;;;;;;8.93;7.10;;;20.30;99.90;;;;;;5031253;28;20442;-39
2023/09/05 00:20:20;;;;;;;10.00;7.50;;;21.30;99.90;;;;;;5011598;28;20037;-39
2023/09/05 00:22:45;;;;;;;8.50;6.93;;;21.20;99.90;;;;;;5031001;28;20033;-39
2023/09/05 00:25:11;;;;;;;9.70;7.70;;;21.20;99.90;;;;;;5013529;28;20048;-39
2023/09/05 00:27:39;;;;;;;9.85;7.18;;;21.10;99.90;;;;;;5029874;28;20045;-38
2023/09/05 00:30:05;;;;;;;10.30;7.03;;;20.20;99.90;;;;;;5031420;28;20041;-39
2023/09/05 00:32:32;;;;;;;9.32;7.32;;;20.30;99.90;;;;;;5027616;28;20037;-39
2023/09/05 00:34:58;;;;;;;9.57;6.80;;;21.50;99.90;;;;;;5022712;28;20083;-39
2023/09/05 00:37:24;;;;;;;10.43;7.20;;;20.50;99.90;;;;;;5031167;28;20049;-39
2023/09/05 00:39:50;;;;;;;10.98;7.47;;;21.30;99.90;;;;;;5030805;28;20534;-39
2023/09/05 00:42:17;;;;;;;9.93;7.82;;;21.20;99.90;;;;;;5030974;28;20033;-41
2023/09/05 00:44:47;;;;;;;10.18;7.35;;;20.10;99.90;;;;;;5030664;28;20041;-38
2023/09/05 00:47:13;;;;;;;9.48;7.00;;;20.30;99.90;;;;;;5030777;28;20029;-39
2023/09/05 00:49:42;;;;;;;10.27;8.00;;;21.20;99.90;;;;;;5030778;28;20175;-39
2023/09/05 00:52:10;;;;;;;10.60;7.40;;;20.50;99.90;;;;;;5029538;28;20190;-38
2023/09/05 00:54:37;;;;;;;9.45;7.18;;;20.70;99.90;;;;;;5030234;28;20073;-41
2023/09/05 00:57:03;;;;;;;11.27;7.53;;;20.40;99.90;;;;;;5030888;28;20432;-39
2023/09/05 00:59:29;;;;;;;9.13;7.57;;;20.40;99.90;;;;;;5029609;28;20038;-38
2023/09/05 01:01:55;;;;;;;8.52;7.05;;;21.30;99.90;;;;;;5030152;28;20068;-40
2023/09/05 01:04:21;;;;;;;9.23;7.65;;;20.20;99.90;;;;;;5030919;28;20056;-39
2023/09/05 01:07:08;;;;;;;11.23;7.47;;;20.20;99.90;;;;;;5030214;28;20038;-39
2023/09/05 01:09:51;;;;;;;8.13;6.50;;;20.90;99.90;;;;;;5030660;28;20080;-38
2023/09/05 01:12:17;;;;;;;9.00;7.15;;;21.00;99.90;;;;;;5023192;28;20068;-40
2023/09/05 01:14:43;;;;;;;10.20;6.82;;;21.00;99.90;;;;;;5030484;28;20077;-40
2023/09/05 01:17:08;;;;;;;8.88;6.93;;;21.20;99.90;;;;;;5030480;28;20037;-38
2023/09/05 01:19:38;;;;;;;10.13;6.72;;;20.20;99.90;;;;;;5030500;28;20040;-38
2023/09/05 01:22:23;;;;;;;8.60;7.22;;;21.20;99.90;;;;;;5030643;28;20303;-38
2023/09/05 01:24:49;;;;;;;8.70;7.18;;;20.00;99.90;;;;;;5028429;28;20045;-39
2023/09/05 01:27:19;;;;;;;10.07;7.85;;;19.80;99.90;;;;;;5030363;28;20041;-41
2023/09/05 01:29:47;;;;;;;9.35;7.30;;;20.90;99.90;;;;;;5029974;28;20045;-40
2023/09/05 01:32:13;;;;;;;10.05;7.03;;;20.00;99.90;;;;;;5030403;28;20451;-38
2023/09/05 01:34:40;;;;;;;9.00;6.97;;;20.00;99.90;;;;;;5029620;28;20516;-39
2023/09/05 01:37:06;;;;;;;9.43;7.38;;;20.10;99.90;;;;;;5027139;28;20038;-40
2023/09/05 01:39:32;;;;;;;8.93;7.18;;;19.90;99.90;;;;;;5029958;28;20045;-39
2023/09/05 01:41:58;;;;;;;10.02;7.05;;;20.00;99.90;;;;;;5028892;28;20075;-39
2023/09/05 01:44:24;;;;;;;9.18;6.93;;;20.20;99.90;;;;;;5028665;28;20076;-40
2023/09/05 01:46:50;;;;;;;9.77;7.50;;;20.50;99.90;;;;;;5026134;28;20104;-40
2023/09/05 01:49:16;;;;;;;10.45;6.65;;;20.00;99.90;;;;;;5027051;28;20470;-39
2023/09/05 01:51:41;;;;;;;10.50;7.18;;;19.80;99.90;;;;;;5028927;28;20029;-36
2023/09/05 01:54:07;;;;;;;12.38;7.85;;;21.00;99.90;;;;;;5029709;28;20029;-40
2023/09/05 01:56:32;;;;;;;9.52;7.45;;;21.00;99.90;;;;;;5029425;28;20491;-39
2023/09/05 01:58:58;;;;;;;9.88;7.68;;;19.90;99.90;;;;;;5027627;28;20515;-39
2023/09/05 02:01:24;;;;;;;10.00;7.70;;;20.80;99.90;;;;;;5028234;28;20037;-39
2023/09/05 02:03:50;;;;;;;9.15;7.43;;;19.50;99.90;;;;;;5028121;28;20053;-40
2023/09/05 02:06:15;;;;;;;9.98;7.20;;;20.50;99.90;;;;;;5027504;28;20037;-41
2023/09/05 02:08:41;;;;;;;11.52;7.47;;;20.90;99.90;;;;;;5029517;28;20512;-41
2023/09/05 02:11:10;;;;;;;9.20;7.20;;;20.10;99.90;;;;;;5029653;28;20037;-37
2023/09/05 02:13:36;;;;;;;9.45;7.15;;;20.30;99.90;;;;;;5029005;28;20041;-38
2023/09/05 02:16:02;;;;;;;10.35;7.97;;;19.90;99.90;;;;;;5029056;28;20033;-39
2023/09/05 02:18:28;;;;;;;10.25;7.45;;;20.00;99.90;;;;;;5029541;28;20076;-37
2023/09/05 02:21:01;;;;;;;8.57;6.93;;;20.40;99.90;;;;;;5028784;28;20037;-38
2023/09/05 02:23:27;;;;;;;9.00;7.18;;;19.80;99.90;;;;;;5029069;28;20480;-39
2023/09/05 02:26:02;;;;;;;9.32;7.72;;;19.60;99.90;;;;;;5028638;28;20037;-39
2023/09/05 02:28:28;;;;;;;9.88;7.80;;;19.60;99.90;;;;;;5029733;28;20045;-39
2023/09/05 02:30:54;;;;;;;10.73;7.60;;;20.80;99.90;;;;;;5028776;28;20038;-39
2023/09/05 02:33:20;;;;;;;9.32;7.53;;;20.40;99.90;;;;;;5028940;28;20030;-38
2023/09/05 02:35:47;;;;;;;9.63;7.78;;;19.80;99.90;;;;;;5027288;28;20038;-38
2023/09/05 02:38:13;;;;;;;10.23;8.07;;;20.30;99.90;;;;;;5029241;28;20037;-38
2023/09/05 02:40:48;;;;;;;8.82;7.22;;;20.30;99.90;;;;;;5029158;28;20041;-36
2023/09/05 02:43:14;;;;;;;10.82;7.80;;;19.70;99.90;;;;;;5023687;28;20503;-38
2023/09/05 02:45:40;;;;;;;9.82;7.75;;;19.70;99.90;;;;;;5029172;28;20048;-39
2023/09/05 02:48:07;;;;;;;11.40;8.30;;;20.10;99.90;;;;;;5028793;28;20033;-40
2023/09/05 02:50:33;;;;;;;10.80;7.80;;;17.70;99.90;;;;;;5027585;28;20064;-39
2023/09/05 02:52:59;;;;;;;10.05;8.25;;;20.10;99.90;;;;;;5028595;28;20487;-38
2023/09/05 02:55:24;;;;;;;12.23;8.05;;;19.40;99.90;;;;;;5028920;28;20216;-39
2023/09/05 02:57:51;;;;;;;10.85;7.72;;;19.50;99.90;;;;;;5028954;28;20025;-40
2023/09/05 03:00:20;;;;;;;9.90;7.72;;;19.50;99.90;;;;;;5029159;28;20072;-38
2023/09/05 03:02:49;;;;;;;10.65;8.07;;;19.60;99.90;;;;;;5025928;28;20063;-38
2023/09/05 03:05:15;;;;;;;9.98;8.07;;;19.60;99.90;;;;;;5027538;28;20545;-39
2023/09/05 03:07:41;;;;;;;10.77;7.30;;;19.70;99.90;;;;;;5029301;28;20037;-40
2023/09/05 03:10:07;;;;;;;9.30;7.78;;;19.60;99.90;;;;;;5030851;28;20061;-36
2023/09/05 03:12:32;;;;;;;10.30;7.88;;;19.50;99.90;;;;;;5032623;28;20068;-39
2023/09/05 03:14:58;;;;;;;8.80;7.15;;;19.30;99.90;;;;;;5032273;28;20065;-38
2023/09/05 03:17:24;;;;;;;9.80;7.63;;;19.30;99.90;;;;;;5032525;28;20044;-39
2023/09/05 03:19:50;;;;;;;9.68;7.63;;;19.30;99.90;;;;;;5032413;28;20124;-39
2023/09/05 03:22:15;;;;;;;11.60;7.03;;;19.50;99.90;;;;;;5032911;28;20506;-40
2023/09/05 03:24:41;;;;;;;10.65;7.53;;;17.50;99.90;;;;;;5032884;28;20411;-38
2023/09/05 03:27:06;;;;;;;10.38;7.63;;;19.60;99.90;;;;;;5032099;28;20187;-38
2023/09/05 03:29:32;;;;;;;11.10;7.40;;;19.50;99.90;;;;;;5032127;28;20537;-41
2023/09/05 03:31:58;;;;;;;9.35;7.10;;;19.70;99.90;;;;;;5032039;28;20044;-39
2023/09/05 03:34:23;;;;;;;10.55;8.10;;;19.20;99.90;;;;;;5032193;28;20030;-38
2023/09/05 03:36:49;;;;;;;10.10;8.27;;;19.80;99.90;;;;;;5031686;28;20041;-41
2023/09/05 03:39:16;;;;;;;9.65;7.72;;;19.60;99.90;;;;;;5032034;28;20403;-39
2023/09/05 03:41:41;;;;;;;9.35;7.05;;;19.10;99.90;;;;;;5032221;28;20543;-38
2023/09/05 03:44:07;;;;;;;10.80;7.97;;;19.50;99.90;;;;;;5029687;28;20128;-40
2023/09/05 03:46:33;;;;;;;10.65;7.88;;;19.60;99.90;;;;;;5031905;28;20120;-40
2023/09/05 03:48:59;;;;;;;10.60;7.50;;;19.50;99.90;;;;;;5031591;28;20534;-41
2023/09/05 03:51:27;;;;;;;11.48;7.75;;;19.40;99.90;;;;;;5031994;28;20068;-39
2023/09/05 03:53:53;;;;;;;9.25;7.60;;;19.50;99.90;;;;;;5031476;28;20037;-39
2023/09/05 03:56:21;;;;;;;10.50;7.93;;;19.50;99.90;;;;;;5030500;28;20510;-39
2023/09/05 03:58:47;;;;;;;12.20;7.70;;;19.20;99.90;;;;;;5031635;28;20120;-38
2023/09/05 04:01:16;;;;;;;11.18;7.50;;;19.70;99.90;;;;;;5031604;28;20145;-38
2023/09/05 04:03:42;;;;;;;10.10;7.50;;;19.70;99.90;;;;;;5031672;28;20033;-40
2023/09/05 04:06:08;;;;;;;9.63;7.25;;;19.50;99.90;;;;;;5030183;28;20048;-40
2023/09/05 04:08:34;;;;;;;10.25;7.05;;;19.50;99.90;;;;;;5030969;28;20053;-39
2023/09/05 04:11:00;;;;;;;9.70;7.82;;;19.70;99.90;;;;;;5029722;28;20052;-38
2023/09/05 04:13:30;;;;;;;9.88;7.53;;;19.60;99.90;;;;;;5030976;28;20056;-39
2023/09/05 04:16:00;;;;;;;9.30;7.30;;;19.80;99.90;;;;;;5031589;28;20500;-37
2023/09/05 04:18:26;;;;;;;9.05;7.43;;;19.30;99.90;;;;;;5031931;28;20049;-37
2023/09/05 04:20:57;;;;;;;10.50;7.85;;;19.10;99.90;;;;;;5030860;28;20035;-39
2023/09/05 04:23:23;;;;;;;9.13;7.25;;;19.70;99.90;;;;;;5031746;28;20399;-38
2023/09/05 04:25:55;;;;;;;9.98;7.75;;;19.40;99.90;;;;;;5030806;28;20037;-42
2023/09/05 04:28:21;;;;;;;9.98;7.22;;;19.30;99.90;;;;;;5023446;28;20407;-40
2023/09/05 04:30:47;;;;;;;10.63;7.63;;;20.20;99.90;;;;;;5031211;28;20041;-39
2023/09/05 04:33:12;;;;;;;10.85;7.63;;;19.40;99.90;;;;;;5030433;28;20033;-39
2023/09/05 04:35:38;;;;;;;9.52;7.05;;;19.40;99.90;;;;;;5030726;28;20037;-38
2023/09/05 04:38:03;;;;;;;9.18;7.00;;;19.30;99.90;;;;;;5030619;28;20067;-39
2023/09/05 04:40:30;;;;;;;10.13;7.18;;;19.60;99.90;;;;;;5030592;28;20061;-39
2023/09/05 04:42:56;;;;;;;9.10;7.13;;;19.30;99.90;;;;;;5030268;28;20041;-42
2023/09/05 04:45:22;;;;;;;12.48;7.57;;;19.20;99.90;;;;;;5029213;28;20124;-38
2023/09/05 04:47:47;;;;;;;27.58;9.10;;;19.30;99.90;;;;;;5025837;28;20037;-35
2023/09/05 04:50:13;;;;;;;11.65;7.82;;;19.50;99.90;;;;;;5026130;28;20121;-38
2023/09/05 04:52:38;;;;;;;12.98;8.27;;;19.40;99.90;;;;;;5028333;28;20525;-39
2023/09/05 04:55:04;;;;;;;12.90;7.75;;;19.30;99.90;;;;;;5029239;28;20514;-37
2023/09/05 04:57:30;;;;;;;10.82;7.72;;;19.40;99.90;;;;;;5028530;28;20424;-40
2023/09/05 04:59:59;;;;;;;13.43;8.07;;;19.50;99.90;;;;;;5028633;28;20120;-39
2023/09/05 05:02:26;;;;;;;10.15;7.93;;;19.30;99.90;;;;;;5014757;28;20037;-39
2023/09/05 05:04:52;;;;;;;10.68;7.15;;;19.20;99.90;;;;;;5017519;28;20447;-37
2023/09/05 05:07:18;;;;;;;10.77;8.15;;;19.30;99.90;;;;;;5026062;28;20629;-39
2023/09/05 05:09:45;;;;;;;10.32;7.60;;;19.80;99.90;;;;;;5023108;28;20091;-37
2023/09/05 05:12:10;;;;;;;8.73;7.07;;;19.30;99.90;;;;;;5021702;28;20400;-37
2023/09/05 05:14:36;;;;;;;11.40;7.13;;;19.40;99.90;;;;;;5027209;28;20147;-39
2023/09/05 05:17:03;;;;;;;10.77;7.43;;;19.20;99.90;;;;;;5028423;28;20041;-39
2023/09/05 05:19:28;;;;;;;9.38;6.82;;;19.10;99.90;;;;;;5029655;28;20064;-37
2023/09/05 05:21:56;;;;;;;10.30;5.45;;;19.40;99.90;;;;;;5029971;28;20482;-40
2023/09/05 05:24:22;;;;;;;10.45;5.05;;;19.30;99.90;;;;;;5029486;28;20506;-38
2023/09/05 05:26:48;;;;;;;8.73;4.80;;;19.10;99.90;;;;;;5028251;28;20431;-40
2023/09/05 05:29:16;;;;;;;8.80;4.75;;;19.40;99.90;;;;;;5029936;28;20046;-38
2023/09/05 05:31:42;;;;;;;8.23;4.55;;;19.40;99.90;;;;;;5029638;28;20053;-38
2023/09/05 05:34:08;;;;;;;8.40;4.57;;;19.50;99.90;;;;;;5026582;28;20113;-37
2023/09/05 05:36:34;;;;;;;8.98;4.70;;;19.40;99.90;;;;;;5016112;28;20816;-39
2023/09/05 05:39:00;;;;;;;7.25;3.72;;;19.70;99.90;;;;;;5028145;28;20414;-39
2023/09/05 05:41:27;;;;;;;9.15;3.65;;;19.60;99.90;;;;;;5028994;28;20380;-39
2023/09/05 05:43:54;;;;;;;9.32;4.15;;;19.60;99.90;;;;;;5029452;28;20038;-41
2023/09/05 05:46:19;;;;;;;7.15;3.80;;;19.70;99.90;;;;;;5029206;28;20029;-39
2023/09/05 05:48:45;;;;;;;7.78;4.22;;;19.80;99.90;;;;;;5030032;28;20044;-40
2023/09/05 05:51:12;;;;;;;6.70;3.85;;;19.80;99.90;;;;;;5029682;28;20044;-39
2023/09/05 05:53:38;;;;;;;6.18;3.15;;;20.50;99.90;;;;;;5028160;28;20147;-39
2023/09/05 05:56:04;;;;;;;5.43;3.50;;;20.10;99.90;;;;;;5027576;28;20123;-39
2023/09/05 05:58:30;;;;;;;6.65;3.38;;;20.80;99.90;;;;;;4996683;28;20734;-40
2023/09/05 06:00:56;;;;;;;7.00;3.55;;;19.60;99.90;;;;;;5020101;28;20057;-40
2023/09/05 06:03:23;;;;;;;7.47;3.63;;;20.70;99.90;;;;;;5021427;28;20037;-40
2023/09/05 06:05:50;;;;;;;6.63;3.50;;;20.20;99.90;;;;;;5021883;28;20091;-39
2023/09/05 06:08:17;;;;;;;5.68;3.03;;;20.00;99.90;;;;;;5018767;28;20050;-39
2023/09/05 06:10:43;;;;;;;6.60;3.30;;;19.90;99.90;;;;;;5019541;28;20037;-39
2023/09/05 06:13:09;;;;;;;5.30;3.00;;;20.20;99.90;;;;;;5021229;28;20029;-39
2023/09/05 06:15:35;;;;;;;6.82;3.20;;;20.10;99.90;;;;;;5022067;28;20048;-39
2023/09/05 06:18:02;;;;;;;5.75;3.00;;;20.80;99.90;;;;;;5020048;28;20037;-42
2023/09/05 06:20:34;;;;;;;5.65;2.97;;;20.00;99.90;;;;;;5022908;28;20041;-39
2023/09/05 06:23:00;;;;;;;6.03;2.97;;;18.60;99.90;;;;;;5022763;28;20080;-41
2023/09/05 06:25:27;;;;;;;5.80;3.30;;;20.20;99.90;;;;;;5022814;28;20041;-41
2023/09/05 06:27:53;;;;;;;5.45;2.58;;;20.00;99.90;;;;;;5023736;28;20046;-39
2023/09/05 06:30:18;;;;;;;6.45;3.17;;;20.40;99.90;;;;;;5022463;28;20049;-41
2023/09/05 06:32:44;;;;;;;6.10;2.95;;;20.20;99.90;;;;;;5021342;28;20045;-40
2023/09/05 06:35:10;;;;;;;5.45;3.00;;;19.80;99.90;;;;;;5020049;28;20396;-39
2023/09/05 06:37:38;;;;;;;6.30;3.17;;;21.10;99.90;;;;;;5021514;28;20029;-39
2023/09/05 06:40:12;;;;;;;6.38;3.20;;;20.20;99.90;;;;;;5022041;28;20030;-39
2023/09/05 06:42:42;;;;;;;5.57;2.97;;;19.90;99.90;;;;;;5020394;28;20132;-39
2023/09/05 06:45:09;;;;;;;7.15;3.38;;;19.90;99.90;;;;;;5023712;28;20041;-41
2023/09/05 06:47:35;;;;;;;6.45;2.90;;;21.10;99.90;;;;;;5024127;28;20467;-41
2023/09/05 06:50:03;;;;;;;5.60;2.75;;;20.90;99.90;;;;;;5026633;28;20086;-41
2023/09/05 06:52:28;;;;;;;5.53;3.00;;;20.00;99.90;;;;;;5025773;28;20076;-41
2023/09/05 06:54:54;;;;;;;5.10;2.70;;;21.10;99.90;;;;;;5026436;28;20049;-40
2023/09/05 06:57:20;;;;;;;7.45;3.50;;;20.30;99.90;;;;;;5025748;28;20518;-39
2023/09/05 06:59:45;;;;;;;5.47;2.67;;;19.90;99.90;;;;;;5025893;28;20550;-39
2023/09/05 07:02:11;;;;;;;5.30;2.60;;;20.20;99.90;;;;;;5025683;28;20376;-39
2023/09/05 07:04:37;;;;;;;5.95;2.72;;;19.70;99.90;;;;;;5025695;28;20037;-39
2023/09/05 07:07:04;;;;;;;5.53;2.65;;;20.30;99.90;;;;;;5026103;28;20041;-39
2023/09/05 07:09:30;;;;;;;6.72;3.00;;;20.00;99.90;;;;;;5024644;28;20073;-41
2023/09/05 07:11:56;;;;;;;5.80;2.70;;;20.10;99.90;;;;;;5021116;28;20064;-40
2023/09/05 07:14:22;;;;;;;4.85;2.28;;;20.10;99.90;;;;;;5025244;28;21256;-40
2023/09/05 07:16:48;;;;;;;6.13;2.60;;;21.00;99.90;;;;;;5025264;28;21738;-40
2023/09/05 07:19:14;;;;;;;5.50;2.63;;;21.10;99.90;;;;;;5022619;28;20057;-38
2023/09/05 07:21:40;;;;;;;5.18;2.70;;;20.30;99.90;;;;;;5025691;28;20034;-36
2023/09/05 07:24:13;;;;;;;5.15;2.80;;;19.90;99.90;;;;;;5025037;28;20036;-39
2023/09/05 07:26:40;;;;;;;4.45;2.22;;;19.90;99.90;;;;;;5023474;28;20088;-41
2023/09/05 07:29:10;;;;;;;5.93;3.08;;;21.00;99.90;;;;;;5025456;28;20041;-39
2023/09/05 07:31:40;;;;;;;5.45;2.65;;;21.00;99.90;;;;;;5023889;28;20041;-38
2023/09/05 07:34:07;;;;;;;5.53;2.60;;;20.00;99.90;;;;;;5024470;28;20037;-37
2023/09/05 07:36:34;;;;;;;5.45;2.65;;;21.20;99.90;;;;;;5024372;28;20041;-38
2023/09/05 07:39:04;;;;;;;4.97;2.60;;;20.50;99.90;;;;;;5026688;28;20029;-39
2023/09/05 07:41:32;;;;;;;5.47;2.55;;;20.40;99.90;;;;;;5024660;28;20426;-42
2023/09/05 07:43:57;;;;;;;5.57;2.40;;;20.10;99.90;;;;;;5023526;28;20038;-42
2023/09/05 07:46:23;;;;;;;5.75;3.15;;;20.60;99.90;;;;;;5023105;28;20453;-40
2023/09/05 07:48:49;;;;;;;6.45;2.70;;;20.90;99.90;;;;;;5025741;28;20055;-39
2023/09/05 07:51:15;;;;;;;5.20;2.85;;;21.10;99.90;;;;;;5022762;28;20153;-40
2023/09/05 07:53:48;;;;;;;5.00;2.63;;;21.20;99.90;;;;;;5024684;28;20033;-39
2023/09/05 07:56:14;;;;;;;5.40;2.58;;;20.30;99.90;;;;;;5022564;28;20476;-39
2023/09/05 07:58:41;;;;;;;6.15;2.70;;;20.30;99.90;;;;;;5024217;28;20034;-39
2023/09/05 08:01:09;;;;;;;4.80;2.50;;;20.20;99.90;;;;;;5025247;28;20077;-41
2023/09/05 08:03:38;;;;;;;4.90;2.60;;;20.80;99.90;;;;;;5024550;28;20041;-41
2023/09/05 08:06:06;;;;;;;5.03;2.45;;;20.10;99.90;;;;;;5024483;28;20495;-38
2023/09/05 08:08:33;;;;;;;5.63;2.80;;;21.40;99.90;;;;;;5023451;28;20041;-40
2023/09/05 08:10:58;;;;;;;5.53;2.85;;;20.20;99.90;;;;;;5023890;28;20424;-40
2023/09/05 08:13:25;;;;;;;5.20;2.53;;;20.20;99.90;;;;;;5023179;28;20092;-40
2023/09/05 08:15:54;;;;;;;5.28;2.38;;;21.10;99.90;;;;;;5024637;28;20152;-39
2023/09/05 08:18:19;;;;;;;4.82;2.30;;;20.50;99.90;;;;;;5025054;28;20064;-38
2023/09/05 08:20:46;;;;;;;5.50;2.70;;;20.20;99.90;;;;;;5024675;28;20495;-39
2023/09/05 08:23:12;;;;;;;5.03;2.50;;;21.50;99.90;;;;;;5023583;28;20443;-39
2023/09/05 08:25:38;;;;;;;4.80;2.50;;;20.90;99.90;;;;;;5024565;28;20040;-39
2023/09/05 08:28:04;;;;;;;5.18;2.60;;;20.30;99.90;;;;;;5024778;28;20116;-39
2023/09/05 08:30:30;;;;;;;4.63;2.45;;;21.30;99.90;;;;;;5024926;28;20072;-39
2023/09/05 08:32:57;;;;;;;4.97;2.13;;;21.20;99.90;;;;;;5023590;28;20149;-41
2023/09/05 08:35:22;;;;;;;6.10;2.28;;;20.40;99.90;;;;;;5023451;28;20055;-42
2023/09/05 08:37:48;;;;;;;5.43;2.60;;;20.30;99.90;;;;;;5024815;28;20049;-38
2023/09/05 08:40:15;;;;;;;5.40;2.50;;;21.10;99.90;;;;;;5024430;28;20052;-38
2023/09/05 08:42:47;;;;;;;5.10;2.58;;;21.30;99.90;;;;;;5022796;28;20036;-40
2023/09/05 08:45:19;;;;;;;4.90;2.28;;;20.90;99.90;;;;;;5025524;28;20267;-39
2023/09/05 08:47:45;;;;;;;5.72;2.33;;;20.50;99.90;;;;;;5030770;28;20292;-39
2023/09/05 08:50:11;;;;;;;5.85;2.35;;;21.30;99.90;;;;;;5029918;28;20072;-40
2023/09/05 08:52:39;;;;;;;5.35;2.60;;;21.30;99.90;;;;;;5020947;28;20049;-39
2023/09/05 08:55:06;;;;;;;4.47;2.45;;;20.90;99.90;;;;;;5029021;28;20514;-40
2023/09/05 08:57:34;;;;;;;4.80;2.28;;;20.80;99.90;;;;;;5028545;28;20049;-38
2023/09/05 09:00:09;;;;;;;5.03;2.42;;;21.20;99.90;;;;;;5030765;28;20038;-36
2023/09/05 09:02:38;;;;;;;4.75;2.22;;;21.50;99.90;;;;;;5027978;28;20121;-41
2023/09/05 09:05:04;;;;;;;4.88;2.50;;;21.00;99.90;;;;;;5029834;28;20119;-39
2023/09/05 09:07:30;;;;;;;4.35;2.10;;;21.10;99.90;;;;;;5030789;28;20564;-38
2023/09/05 09:09:59;;;;;;;5.35;2.53;;;21.00;99.90;;;;;;5031263;28;20044;-39
2023/09/05 09:12:32;;;;;;;4.55;2.35;;;21.50;99.90;;;;;;5030436;28;20120;-41
2023/09/05 09:15:12;;;;;;;4.57;2.08;;;20.90;99.90;;;;;;5030945;28;20086;-39
2023/09/05 09:17:41;;;;;;;5.05;2.25;;;20.60;99.90;;;;;;5030750;28;20413;-39
2023/09/05 09:20:12;;;;;;;4.65;2.17;;;21.50;99.90;;;;;;5029622;28;20471;-39
2023/09/05 09:22:38;;;;;;;6.07;2.65;;;20.60;99.90;;;;;;5030297;28;20052;-41
2023/09/05 09:25:12;;;;;;;4.80;2.30;;;21.60;99.90;;;;;;5030801;28;20084;-41
2023/09/05 09:27:39;;;;;;;4.82;2.22;;;20.90;99.90;;;;;;5030754;28;20052;-39
2023/09/05 09:30:09;;;;;;;5.38;2.50;;;20.60;99.90;;;;;;5029856;28;20450;-39
2023/09/05 09:32:39;;;;;;;5.35;2.35;;;21.60;99.90;;;;;;5030279;28;20045;-39
2023/09/05 09:35:06;;;;;;;4.95;2.50;;;21.20;99.90;;;;;;5024637;28;20071;-41
2023/09/05 09:37:33;;;;;;;4.82;2.13;;;20.50;99.90;;;;;;5030451;28;20429;-39
2023/09/05 09:40:06;;;;;;;5.57;2.88;;;21.40;99.90;;;;;;5030340;28;20120;-39
2023/09/05 09:42:34;;;;;;;5.37;2.10;;;20.40;99.90;;;;;;5028843;28;20045;-39
2023/09/05 09:45:00;;;;;;;5.68;2.78;;;20.40;99.90;;;;;;5030343;28;20299;-39
2023/09/05 09:47:30;;;;;;;4.80;2.00;;;20.50;99.90;;;;;;5030457;28;20088;-40
2023/09/05 09:49:58;;;;;;;4.82;2.10;;;21.70;99.90;;;;;;5030630;28;20442;-39
2023/09/05 09:52:26;;;;;;;4.60;2.20;;;21.70;99.90;;;;;;5029977;28;20049;-40
2023/09/05 09:54:56;;;;;;;4.57;2.20;;;20.80;99.90;;;;;;5025736;28;20080;-39
2023/09/05 09:57:30;;;;;;;4.82;2.40;;;21.60;99.90;;;;;;5029105;28;20034;-39
2023/09/05 09:59:59;;;;;;;5.82;2.70;;;21.30;99.90;;;;;;5023019;28;20049;-41
2023/09/05 10:02:26;;;;;;;5.47;2.40;;;21.50;99.90;;;;;;5030083;28;20060;-41
2023/09/05 10:04:53;;;;;;;4.78;2.30;;;21.40;99.90;;;;;;5021172;28;20403;-39
2023/09/05 10:07:19;;;;;;;4.53;2.20;;;21.50;99.90;;;;;;5030169;28;20037;-39
2023/09/05 10:09:48;;;;;;;5.40;2.40;;;21.20;99.90;;;;;;5030058;28;20048;-39
2023/09/05 10:12:18;;;;;;;5.35;2.30;;;20.90;99.90;;;;;;5029112;28;20103;-41
2023/09/05 10:14:45;;;;;;;5.00;2.50;;;21.80;99.90;;;;;;5030195;28;20033;-39
2023/09/05 10:17:13;;;;;;;5.05;2.28;;;21.30;99.90;;;;;;5030520;28;20037;-41
2023/09/05 10:19:42;;;;;;;5.53;2.38;;;21.60;99.90;;;;;;5027802;28;20037;-39
2023/09/05 10:22:09;;;;;;;5.35;2.58;;;21.80;99.90;;;;;;5030463;28;20483;-40
2023/09/05 10:24:36;;;;;;;5.38;2.38;;;21.80;99.90;;;;;;5029441;28;20037;-40
2023/09/05 10:27:03;;;;;;;4.30;2.10;;;21.70;99.90;;;;;;5030038;28;20426;-40
2023/09/05 10:29:42;;;;;;;5.25;2.40;;;21.50;99.90;;;;;;5028668;28;20058;-41
2023/09/05 10:32:09;;;;;;;4.78;2.10;;;20.60;99.90;;;;;;5029925;28;20056;-39
2023/09/05 10:34:46;;;;;;;6.10;2.28;;;21.60;99.90;;;;;;5029180;28;20041;-39
2023/09/05 10:37:18;;;;;;;4.18;1.95;;;21.80;99.90;;;;;;5029934;28;20144;-40
2023/09/05 10:39:48;;;;;;;4.05;1.88;;;21.80;99.90;;;;;;5029385;28;20049;-40
2023/09/05 10:42:14;;;;;;;5.40;2.55;;;21.60;99.90;;;;;;5028870;28;20456;-39
2023/09/05 10:44:47;;;;;;;4.90;2.20;;;21.30;99.90;;;;;;5029278;28;20033;-40
2023/09/05 10:47:26;;;;;;;4.85;2.00;;;21.70;99.90;;;;;;5030066;28;20117;-41
2023/09/05 10:50:07;;;;;;;5.40;2.50;;;21.60;99.90;;;;;;5029426;28;20410;-40
2023/09/05 10:52:33;;;;;;;4.82;2.20;;;20.90;99.90;;;;;;5029194;28;20399;-41
2023/09/05 10:55:29;;;;;;;5.18;2.65;;;21.60;99.90;;;;;;5029397;28;20099;-41
2023/09/05 10:57:56;;;;;;;5.78;2.15;;;21.50;99.90;;;;;;5028489;28;20081;-40
2023/09/05 11:00:26;;;;;;;4.85;2.30;;;20.90;99.90;;;;;;5028166;28;20055;-41
2023/09/05 11:02:56;;;;;;;5.00;2.30;;;21.70;99.90;;;;;;5029318;28;20045;-39
2023/09/05 11:05:26;;;;;;;4.68;2.30;;;21.90;99.90;;;;;;5029511;28;20038;-40
2023/09/05 11:07:54;;;;;;;5.40;2.30;;;20.80;99.90;;;;;;5029039;28;20038;-40
2023/09/05 11:10:27;;;;;;;5.35;2.45;;;21.90;99.90;;;;;;5029720;28;20045;-40
2023/09/05 11:12:53;;;;;;;4.37;2.13;;;21.80;99.90;;;;;;5028955;28;20042;-39
2023/09/05 11:15:33;;;;;;;5.07;2.25;;;21.40;99.90;;;;;;5028379;28;20041;-40
2023/09/05 11:18:08;;;;;;;4.95;2.20;;;21.90;99.90;;;;;;5028937;28;20041;-39
2023/09/05 11:20:54;;;;;;;4.80;1.95;;;21.60;99.90;;;;;;5027941;28;20077;-40
2023/09/05 11:23:25;;;;;;;4.70;2.13;;;22.10;99.90;;;;;;5022441;28;20153;-38
2023/09/05 11:26:04;;;;;;;4.80;2.33;;;20.90;99.90;;;;;;5027860;28;20417;-38
2023/09/05 11:28:30;;;;;;;4.65;2.30;;;22.20;99.90;;;;;;5029865;28;20048;-40
2023/09/05 11:30:57;;;;;;;4.65;1.92;;;21.50;99.90;;;;;;5030369;28;20034;-39
2023/09/05 11:33:24;;;;;;;4.70;2.15;;;21.90;99.90;;;;;;5031962;28;20517;-38
2023/09/05 11:35:51;;;;;;;5.97;2.30;;;21.70;99.90;;;;;;5032679;28;20373;-39
2023/09/05 11:38:21;;;;;;;5.00;2.22;;;21.40;99.90;;;;;;5031698;28;20088;-40
2023/09/05 11:40:54;;;;;;;5.07;2.30;;;22.00;99.90;;;;;;5029801;28;20442;-41
2023/09/05 11:43:22;;;;;;;5.28;2.67;;;21.00;99.90;;;;;;5032703;28;20033;-41
2023/09/05 11:45:52;;;;;;;4.53;2.40;;;21.60;99.90;;;;;;5032060;28;20067;-38
2023/09/05 11:48:19;;;;;;;4.47;1.95;;;22.00;99.90;;;;;;5032817;28;20492;-39
2023/09/05 11:50:45;;;;;;;5.13;2.33;;;21.70;99.90;;;;;;5032356;28;20100;-38
2023/09/05 11:53:18;;;;;;;4.57;2.15;;;21.70;99.90;;;;;;5032435;28;20039;-39
2023/09/05 11:55:44;;;;;;;6.47;2.30;;;21.90;99.90;;;;;;5031126;28;20033;-39
2023/09/05 11:58:11;;;;;;;5.15;2.33;;;21.70;99.90;;;;;;5032888;28;20033;-38
2023/09/05 12:00:44;;;;;;;5.47;2.40;;;21.80;99.90;;;;;;5032153;28;20057;-41
2023/09/05 12:03:15;;;;;;;4.90;2.10;;;21.70;99.90;;;;;;5032198;28;20438;-38
2023/09/05 12:05:42;;;;;;;4.75;2.30;;;21.80;99.90;;;;;;5032281;28;20188;-39
2023/09/05 12:08:08;;;;;;;4.78;2.40;;;22.00;99.90;;;;;;5031112;28;20112;-39
2023/09/05 12:10:50;;;;;;;4.35;1.92;;;22.00;99.90;;;;;;5032274;28;20116;-40
2023/09/05 12:13:17;;;;;;;4.68;2.05;;;21.90;99.90;;;;;;5031039;28;20073;-39
2023/09/05 12:15:45;;;;;;;6.43;2.67;;;22.00;99.90;;;;;;5031562;28;20046;-41
2023/09/05 12:18:19;;;;;;;4.40;2.08;;;21.90;99.90;;;;;;5032563;28;20116;-40
2023/09/05 12:21:00;;;;;;;5.80;2.60;;;21.80;99.90;;;;;;5031682;28;20499;-40
2023/09/05 12:23:26;;;;;;;4.65;2.08;;;21.70;99.90;;;;;;5032024;28;20045;-39
2023/09/05 12:25:54;;;;;;;5.38;2.35;;;21.80;99.90;;;;;;5031517;28;20418;-40
2023/09/05 12:28:22;;;;;;;6.03;2.15;;;21.80;99.90;;;;;;5030897;28;20428;-39
2023/09/05 12:30:48;;;;;;;4.50;2.00;;;22.20;99.90;;;;;;5030317;28;20113;-39
2023/09/05 12:33:15;;;;;;;5.90;2.72;;;21.90;99.90;;;;;;5030820;28;20563;-39
2023/09/05 12:35:41;;;;;;;4.55;2.13;;;22.10;99.90;;;;;;5031556;28;20083;-39
2023/09/05 12:38:07;;;;;;;4.57;2.10;;;21.90;99.90;;;;;;5031814;28;20125;-39
2023/09/05 12:40:33;;;;;;;5.20;2.13;;;22.20;1.00;;;;;;5031781;28;20041;-39
2023/09/05 12:43:00;;;;;;;4.70;2.38;;;21.90;1.00;;;;;;5030905;28;20041;-40
2023/09/05 12:45:26;;;;;;;4.53;1.98;;;22.00;1.00;;;;;;5031536;28;20517;-40
2023/09/05 12:47:52;;;;;;;4.82;2.40;;;22.40;1.00;;;;;;5030231;28;20037;-39